Alanson, Michigan
Current Conditions -  °F | °C
As of 7:15 PM on Friday 31 Oct 2014 (Local Time) from KMGN Reporting Station
Overcast Overcast  
Wind Chill: 22°   Ceiling: 4300
Heat Index: 32°   Visibility: 10mi
Dew Point: 20°   Wind: 13mph
Humidity: 62%   Direction: 30°NNE
Pressure: 30.32"   Gusts: 17mph
Location:  45.44°N, 84.79°W
Report Text: KMGN 312315Z AUTO 03011G15KT 350V050 10SM OVC043 00/M06 A3032 RMK AO2 T10011066
Loading
Personal Weather Stations






























Interactive Weather Map
Tropical Storm Tracking
New forecast layout! Learn more

10-Day Weather Forecast

Advertisements
Track Severe Weather on mobile